Time;durP1;ratioP1;P1;durP2;ratioP2;P2;SDS_P1;SDS_P2;PMS_P1;PMS_P2;Temp;Humidity;BMP_temperature;BMP_pressure;BME280_temperature;BME280_humidity;BME280_pressure;Samples;Min_cycle;Max_cycle;Signal;HPM_P1;HPM_P2
2023/09/24 00:00:15;;;;;;;6.15;3.63;;;;;;;11.62;100.00;102183.13;4919817;29;20694;-77
2023/09/24 00:02:43;;;;;;;5.88;3.13;;;;;;;11.62;100.00;102186.63;4946382;28;20062;-77
2023/09/24 00:05:13;;;;;;;3.92;2.72;;;;;;;11.60;100.00;102193.66;4928331;29;20047;-77
2023/09/24 00:07:40;;;;;;;8.05;2.70;;;;;;;11.58;100.00;102194.47;4933364;29;20043;-77
2023/09/24 00:10:08;;;;;;;8.88;3.17;;;;;;;11.58;100.00;102203.28;4928798;29;20059;-77
2023/09/24 00:12:35;;;;;;;6.22;3.40;;;;;;;11.59;100.00;102199.81;4947826;29;20051;-77
2023/09/24 00:15:03;;;;;;;4.13;3.08;;;;;;;11.60;100.00;102201.56;4869751;29;20052;-77
2023/09/24 00:17:30;;;;;;;5.82;3.30;;;;;;;11.64;100.00;102215.72;4947848;29;20047;-77
2023/09/24 00:19:58;;;;;;;3.45;3.10;;;;;;;11.66;100.00;102217.56;4937341;29;20411;-77
2023/09/24 00:22:25;;;;;;;6.35;2.97;;;;;;;11.67;100.00;102216.69;4907010;29;20044;-77
2023/09/24 00:24:54;;;;;;;3.50;2.65;;;;;;;11.70;100.00;102223.75;4915524;29;20044;-77
2023/09/24 00:27:24;;;;;;;6.70;3.20;;;;;;;11.72;100.00;102227.34;4925434;29;20063;-77
2023/09/24 00:29:51;;;;;;;5.47;3.03;;;;;;;11.72;100.00;102224.72;4867750;29;20056;-78
2023/09/24 00:32:18;;;;;;;5.18;3.03;;;;;;;11.74;100.00;102230.91;4927969;28;20047;-77
2023/09/24 00:34:46;;;;;;;6.28;2.97;;;;;;;11.74;100.00;102224.72;4911316;29;20066;-77
2023/09/24 00:37:13;;;;;;;9.10;3.22;;;;;;;11.76;100.00;102230.91;4930688;29;20067;-77
2023/09/24 00:39:41;;;;;;;6.75;3.42;;;;;;;11.77;100.00;102225.69;4899684;29;20415;-77
2023/09/24 00:42:09;;;;;;;11.07;3.60;;;;;;;11.78;100.00;102229.22;4936263;29;20047;-77
2023/09/24 00:44:37;;;;;;;7.53;3.67;;;;;;;11.79;100.00;102229.22;4868074;29;20043;-78
2023/09/24 00:47:04;;;;;;;7.35;2.80;;;;;;;11.81;100.00;102232.78;4902595;29;20422;-77
2023/09/24 00:49:32;;;;;;;4.65;2.50;;;;;;;11.82;100.00;102223.16;4938780;29;20051;-77
2023/09/24 00:52:00;;;;;;;4.53;2.47;;;;;;;11.83;100.00;102238.13;4912663;29;20058;-77
2023/09/24 00:54:28;;;;;;;6.35;2.45;;;;;;;11.84;100.00;102226.72;4892428;29;20837;-77
2023/09/24 00:56:58;;;;;;;4.68;2.70;;;;;;;11.85;100.00;102233.75;4921576;29;20059;-77
2023/09/24 00:59:28;;;;;;;5.47;3.22;;;;;;;11.83;100.00;102233.75;4890969;29;20735;-77
2023/09/24 01:01:57;;;;;;;6.28;2.83;;;;;;;11.84;100.00;102234.63;4908063;29;20661;-77
2023/09/24 01:04:24;;;;;;;5.18;2.70;;;;;;;11.83;100.00;102236.38;4925731;29;20055;-77
2023/09/24 01:06:52;;;;;;;6.00;2.67;;;;;;;11.83;100.00;102238.13;4933211;29;20186;-77
2023/09/24 01:09:19;;;;;;;6.30;2.72;;;;;;;11.80;100.00;102244.25;4909149;29;20059;-77
2023/09/24 01:11:52;;;;;;;9.65;2.75;;;;;;;11.75;100.00;102245.00;4898494;29;20127;-77
2023/09/24 01:14:20;;;;;;;7.70;2.90;;;;;;;11.68;100.00;102244.88;4852648;29;20055;-77
2023/09/24 01:16:48;;;;;;;6.43;4.20;;;;;;;11.66;100.00;102238.69;4929245;29;20530;-77
2023/09/24 01:19:16;;;;;;;4.90;3.38;;;;;;;11.64;100.00;102242.13;4938346;29;20043;-77
2023/09/24 01:21:45;;;;;;;9.38;3.30;;;;;;;11.59;100.00;102244.69;4927064;29;20499;-77
2023/09/24 01:24:12;;;;;;;7.13;2.63;;;;;;;11.55;100.00;102250.75;4922209;29;20043;-78
2023/09/24 01:26:40;;;;;;;3.30;2.10;;;;;;;11.51;100.00;102248.88;4879333;29;20052;-77
2023/09/24 01:29:09;;;;;;;7.72;2.72;;;;;;;11.47;100.00;102255.88;4903909;29;20059;-77
2023/09/24 01:31:38;;;;;;;8.30;1.90;;;;;;;11.43;100.00;102263.69;4865672;29;20056;-77
2023/09/24 01:34:05;;;;;;;4.90;1.83;;;;;;;11.39;100.00;102260.06;4887339;29;20425;-77
2023/09/24 01:36:33;;;;;;;3.90;1.90;;;;;;;11.36;100.00;102259.13;4937547;29;20080;-77
2023/09/24 01:39:01;;;;;;;5.18;2.13;;;;;;;11.34;100.00;102268.75;4942842;29;20039;-77
2023/09/24 01:41:30;;;;;;;7.60;2.25;;;;;;;11.31;100.00;102259.03;4902796;29;20052;-78
2023/09/24 01:43:58;;;;;;;4.97;2.08;;;;;;;11.28;100.00;102261.56;4929837;29;20055;-77
2023/09/24 01:46:26;;;;;;;2.35;1.70;;;;;;;11.27;100.00;102268.63;4876115;29;20055;-77
2023/09/24 01:48:54;;;;;;;4.90;2.08;;;;;;;11.24;100.00;102271.16;4929180;29;20063;-77
2023/09/24 01:51:22;;;;;;;4.90;2.58;;;;;;;11.22;100.00;102272.00;4938133;28;20051;-77
2023/09/24 01:53:49;;;;;;;4.70;2.17;;;;;;;11.19;100.00;102262.28;4940583;29;20047;-77
2023/09/24 01:56:21;;;;;;;6.65;2.08;;;;;;;11.19;100.00;102271.91;4849760;29;20887;-77
2023/09/24 01:58:51;;;;;;;9.85;3.03;;;;;;;11.15;100.00;102273.59;4933605;29;20055;-77
2023/09/24 02:01:18;;;;;;;3.67;2.00;;;;;;;11.11;100.00;102269.09;4909522;29;20059;-77
2023/09/24 02:03:48;;;;;;;4.18;2.15;;;;;;;11.09;100.00;102268.19;4862539;29;20039;-78
2023/09/24 02:06:16;;;;;;;2.95;2.10;;;;;;;11.08;100.00;102263.78;4937465;29;20047;-77
2023/09/24 02:08:43;;;;;;;4.38;2.60;;;;;;;11.06;100.00;102266.38;4943671;29;20047;-78
2023/09/24 02:11:13;;;;;;;5.95;2.55;;;;;;;11.05;100.00;102266.31;4912042;29;20056;-77
2023/09/24 02:13:41;;;;;;;5.68;2.17;;;;;;;11.03;100.00;102270.69;4896186;29;20048;-77
2023/09/24 02:16:09;;;;;;;6.07;2.15;;;;;;;11.00;100.00;102274.16;4905997;29;20064;-77
2023/09/24 02:18:36;;;;;;;5.88;2.00;;;;;;;10.98;100.00;102267.03;4869191;29;20052;-77
2023/09/24 02:21:14;;;;;;;4.72;1.88;;;;;;;10.95;100.00;102264.34;4906901;29;20059;-77
2023/09/24 02:23:42;;;;;;;5.15;2.10;;;;;;;10.91;100.00;102266.88;4939312;29;20054;-78
2023/09/24 02:26:11;;;;;;;5.88;2.50;;;;;;;10.90;100.00;102259.81;4928981;29;20046;-77
2023/09/24 02:28:39;;;;;;;5.65;2.17;;;;;;;10.87;100.00;102249.22;4889760;29;20077;-77
2023/09/24 02:31:10;;;;;;;2.08;1.88;;;;;;;10.86;100.00;102251.81;4954172;28;20052;-77
2023/09/24 02:33:37;;;;;;;5.72;2.28;;;;;;;10.83;100.00;102263.19;4915607;29;20467;-77
2023/09/24 02:36:07;;;;;;;4.60;2.00;;;;;;;10.81;100.00;102254.34;4838735;29;20047;-77
2023/09/24 02:38:35;;;;;;;2.78;2.22;;;;;;;10.80;100.00;102251.66;4909234;29;21219;-78
2023/09/24 02:41:04;;;;;;;2.85;1.88;;;;;;;10.76;100.00;102250.69;4928096;29;20511;-77
2023/09/24 02:43:32;;;;;;;2.33;2.13;;;;;;;10.75;100.00;102264.72;4911895;29;22407;-77
2023/09/24 02:46:00;;;;;;;5.68;2.20;;;;;;;10.72;100.00;102260.25;4915516;29;20051;-77
2023/09/24 02:48:27;;;;;;;4.32;2.40;;;;;;;10.71;100.00;102253.19;4914202;29;20048;-77
2023/09/24 02:50:56;;;;;;;9.13;2.45;;;;;;;10.69;100.00;102262.81;4857135;29;20842;-77
2023/09/24 02:53:24;;;;;;;9.27;3.35;;;;;;;10.71;100.00;102261.09;4922438;29;20685;-77
2023/09/24 02:55:51;;;;;;;10.73;3.17;;;;;;;10.73;100.00;102274.34;4912697;29;20058;-77
2023/09/24 02:58:19;;;;;;;4.85;2.30;;;;;;;10.72;100.00;102267.28;4911630;29;20040;-77
2023/09/24 03:00:46;;;;;;;3.17;2.53;;;;;;;10.71;100.00;102273.41;4929321;28;20423;-77
2023/09/24 03:03:15;;;;;;;11.13;3.65;;;;;;;10.69;100.00;102275.13;4942318;29;20044;-77
2023/09/24 03:05:43;;;;;;;4.93;2.42;;;;;;;10.68;100.00;102278.59;4877507;29;20055;-78
2023/09/24 03:08:15;;;;;;;5.68;4.20;;;;;;;10.69;100.00;102285.66;4894229;29;20051;-77
2023/09/24 03:10:44;;;;;;;7.50;4.50;;;;;;;10.67;100.00;102290.88;4937539;29;20062;-77
2023/09/24 03:13:11;;;;;;;7.45;3.20;;;;;;;10.66;100.00;102288.19;4909299;29;20075;-77
2023/09/24 03:15:38;;;;;;;5.25;2.63;;;;;;;10.62;100.00;102287.22;4906445;29;20423;-77
2023/09/24 03:18:06;;;;;;;3.90;2.50;;;;;;;10.61;100.00;102293.38;4894463;29;20094;-77
2023/09/24 03:20:34;;;;;;;5.70;2.85;;;;;;;10.60;100.00;102290.69;4896106;28;20047;-77
2023/09/24 03:23:08;;;;;;;4.00;2.80;;;;;;;10.58;100.00;102284.50;4910837;29;20036;-77
2023/09/24 03:25:36;;;;;;;7.65;3.13;;;;;;;10.55;100.00;102285.31;4944015;29;20445;-77
2023/09/24 03:28:04;;;;;;;7.85;3.15;;;;;;;10.56;100.00;102288.84;4957203;28;20059;-77
2023/09/24 03:30:32;;;;;;;8.50;3.88;;;;;;;10.54;100.00;102296.69;4917869;29;20051;-77
2023/09/24 03:33:00;;;;;;;6.93;3.55;;;;;;;10.53;100.00;102295.81;4879546;29;20056;-77
2023/09/24 03:35:29;;;;;;;6.20;2.97;;;;;;;10.56;100.00;102304.66;4868302;29;21057;-77
2023/09/24 03:37:57;;;;;;;3.88;3.28;;;;;;;10.57;100.00;102311.69;4942805;29;20043;-77
2023/09/24 03:40:29;;;;;;;6.03;3.00;;;;;;;10.54;100.00;102313.38;4941840;29;20051;-77
2023/09/24 03:42:56;;;;;;;4.68;3.40;;;;;;;10.51;100.00;102310.69;4929452;29;20051;-77
2023/09/24 03:45:24;;;;;;;7.45;3.78;;;;;;;10.51;100.00;102315.97;4910854;29;20481;-77
2023/09/24 03:47:55;;;;;;;6.75;3.33;;;;;;;10.52;100.00;102311.56;4915580;29;20060;-77
2023/09/24 03:50:23;;;;;;;4.63;3.58;;;;;;;10.53;100.00;102311.63;4909444;29;20052;-77
2023/09/24 03:52:51;;;;;;;8.70;3.60;;;;;;;10.54;100.00;102321.28;4899705;28;20059;-77
2023/09/24 03:55:19;;;;;;;4.18;3.75;;;;;;;10.56;100.00;102316.06;4909305;29;20052;-77
2023/09/24 03:57:47;;;;;;;5.25;4.13;;;;;;;10.59;100.00;102328.47;4927495;29;20059;-77
2023/09/24 04:00:20;;;;;;;4.90;3.80;;;;;;;10.60;100.00;102317.94;4908981;29;20388;-77
2023/09/24 04:02:51;;;;;;;8.48;4.20;;;;;;;10.64;100.00;102313.63;4902454;29;20495;-77
2023/09/24 04:05:21;;;;;;;;;;;;;;;10.67;100.00;102325.16;4928906;28;20558;-77
2023/09/24 04:07:52;;;;;;;8.10;4.07;;;;;;;10.68;100.00;102331.31;4877522;29;19926;-77
2023/09/24 04:10:22;;;;;;;7.32;3.78;;;;;;;10.71;100.00;102327.03;4902859;29;20047;-77
2023/09/24 04:12:50;;;;;;;14.00;7.57;;;;;;;10.75;100.00;102333.25;4934940;28;20056;-77
2023/09/24 04:15:21;;;;;;;11.10;6.60;;;;;;;10.76;100.00;102328.91;4907440;29;20796;-78
2023/09/24 04:17:49;;;;;;;11.70;4.53;;;;;;;10.77;100.00;102323.66;4887918;29;20051;-77
2023/09/24 04:20:20;;;;;;;8.05;4.35;;;;;;;10.78;100.00;102322.81;4935041;29;20050;-77
2023/09/24 04:22:49;;;;;;;8.90;4.22;;;;;;;10.80;100.00;102328.13;4875084;29;20075;-77
2023/09/24 04:25:20;;;;;;;8.50;4.32;;;;;;;10.82;100.00;102329.06;4899389;29;20051;-77
2023/09/24 04:27:48;;;;;;;4.15;3.40;;;;;;;10.81;100.00;102327.25;4904497;29;20055;-77
2023/09/24 04:30:21;;;;;;;7.72;4.38;;;;;;;10.81;100.00;102328.19;4922857;29;20060;-77
2023/09/24 04:32:53;;;;;;;9.68;4.22;;;;;;;10.81;100.00;102336.09;4928804;29;20047;-77
2023/09/24 04:35:21;;;;;;;8.85;5.28;;;;;;;10.80;100.00;102334.28;4899621;29;20081;-77
2023/09/24 04:37:50;;;;;;;6.88;5.30;;;;;;;10.79;100.00;102328.97;4925671;29;20059;-77
2023/09/24 04:40:18;;;;;;;5.70;4.18;;;;;;;10.77;100.00;102331.56;4879054;29;20047;-77
2023/09/24 04:42:46;;;;;;;7.28;4.40;;;;;;;10.76;100.00;102334.19;4894961;29;20048;-77
2023/09/24 04:45:14;;;;;;;10.85;4.50;;;;;;;10.73;100.00;102334.97;4924283;29;20054;-78
2023/09/24 04:47:42;;;;;;;12.13;4.45;;;;;;;10.70;100.00;102332.28;4915584;29;20056;-77
2023/09/24 04:50:12;;;;;;;7.82;4.55;;;;;;;10.70;100.00;102337.56;4891635;29;20071;-77
2023/09/24 04:52:41;;;;;;;6.47;4.38;;;;;;;10.68;100.00;102332.22;4910319;29;20475;-77
2023/09/24 04:55:10;;;;;;;9.55;5.35;;;;;;;10.66;100.00;102348.84;4893802;28;20577;-77
2023/09/24 04:57:37;;;;;;;6.47;4.32;;;;;;;10.62;100.00;102347.88;4925518;29;20059;-77
2023/09/24 05:00:05;;;;;;;7.35;4.53;;;;;;;10.61;100.00;102350.47;4924499;29;20054;-77
2023/09/24 05:02:32;;;;;;;7.43;4.85;;;;;;;10.58;100.00;102350.38;4924830;29;20052;-77
2023/09/24 05:05:00;;;;;;;7.68;5.38;;;;;;;10.54;100.00;102355.56;4879381;29;20047;-77
2023/09/24 05:07:27;;;;;;;6.50;4.90;;;;;;;10.50;100.00;102355.44;4909163;29;20862;-77
2023/09/24 05:09:55;;;;;;;6.25;5.38;;;;;;;10.47;100.00;102360.63;4879456;29;20518;-77
2023/09/24 05:12:23;;;;;;;11.38;6.25;;;;;;;10.44;100.00;102368.47;4891108;29;20778;-77
2023/09/24 05:14:50;;;;;;;12.38;5.70;;;;;;;10.40;100.00;102369.25;4926058;29;20039;-77
2023/09/24 05:17:18;;;;;;;7.75;6.20;;;;;;;10.36;100.00;102362.97;4923863;29;20047;-77
2023/09/24 05:19:45;;;;;;;8.20;5.43;;;;;;;10.35;100.00;102374.34;4900272;29;20051;-77
2023/09/24 05:22:13;;;;;;;7.70;5.90;;;;;;;10.32;100.00;102366.34;4890755;29;20506;-77
2023/09/24 05:24:40;;;;;;;7.90;6.13;;;;;;;10.26;100.00;102372.31;4926075;29;20047;-77
2023/09/24 05:27:07;;;;;;;9.98;6.07;;;;;;;10.23;100.00;102369.59;4878078;29;20056;-77
2023/09/24 05:29:35;;;;;;;6.60;5.50;;;;;;;10.21;100.00;102375.66;4909442;29;20051;-77
2023/09/24 05:32:03;;;;;;;6.78;6.07;;;;;;;10.18;100.00;102380.84;4924770;29;20043;-77
2023/09/24 05:34:30;;;;;;;6.38;5.68;;;;;;;10.15;100.00;102379.91;4913857;29;20079;-77
2023/09/24 05:36:57;;;;;;;8.27;5.80;;;;;;;10.16;100.00;102391.34;4921391;29;20052;-77
2023/09/24 05:39:26;;;;;;;6.28;5.45;;;;;;;10.16;100.00;102399.25;4926178;29;20056;-76
2023/09/24 05:41:54;;;;;;;8.07;5.88;;;;;;;10.15;100.00;102397.44;4881068;29;20060;-77
2023/09/24 05:44:22;;;;;;;8.88;6.53;;;;;;;10.15;100.00;102398.34;4896160;29;20051;-77
2023/09/24 05:46:49;;;;;;;8.25;5.95;;;;;;;10.17;100.00;102395.78;4889056;29;20577;-77
2023/09/24 05:49:16;;;;;;;6.68;5.65;;;;;;;10.20;100.00;102402.88;4914381;29;20058;-77
2023/09/24 05:51:44;;;;;;;7.32;5.85;;;;;;;10.22;100.00;102399.41;4907317;29;20058;-77
2023/09/24 05:54:12;;;;;;;9.63;6.07;;;;;;;10.24;100.00;102404.75;4894069;29;20115;-77
2023/09/24 05:56:41;;;;;;;7.78;6.07;;;;;;;10.27;100.00;102399.56;4879058;29;20066;-76
2023/09/24 05:59:08;;;;;;;7.88;6.10;;;;;;;10.29;100.00;102406.66;4888153;29;20510;-77
2023/09/24 06:01:35;;;;;;;9.10;7.20;;;;;;;10.32;100.00;102411.16;4921022;29;20059;-77
2023/09/24 06:04:03;;;;;;;11.48;7.15;;;;;;;10.34;100.00;102409.47;4914986;29;20422;-76
2023/09/24 06:06:31;;;;;;;9.32;7.32;;;;;;;10.37;100.00;102417.44;4918693;29;20056;-77
2023/09/24 06:08:58;;;;;;;10.40;7.20;;;;;;;10.39;100.00;102418.38;4920102;29;20052;-77
2023/09/24 06:11:25;;;;;;;9.00;6.07;;;;;;;10.43;100.00;102415.00;4928205;29;20051;-77
2023/09/24 06:13:53;;;;;;;7.50;6.70;;;;;;;10.45;100.00;102408.06;4836268;29;20063;-77
2023/09/24 06:16:20;;;;;;;10.32;6.38;;;;;;;10.47;100.00;102416.88;4898278;29;20577;-77
2023/09/24 06:18:47;;;;;;;10.13;6.38;;;;;;;10.50;100.00;102413.44;4913457;29;20442;-77
2023/09/24 06:21:16;;;;;;;10.38;6.40;;;;;;;10.50;100.00;102416.97;4896329;29;20048;-77
2023/09/24 06:23:43;;;;;;;8.60;6.78;;;;;;;10.53;100.00;102418.81;4921173;29;20434;-77
2023/09/24 06:26:11;;;;;;;10.73;7.43;;;;;;;10.57;100.00;102414.47;4920240;29;20399;-77
2023/09/24 06:28:38;;;;;;;9.43;6.78;;;;;;;10.59;100.00;102418.09;4887478;29;20418;-77
2023/09/24 06:31:05;;;;;;;10.02;6.72;;;;;;;10.62;100.00;102424.31;4928572;29;20455;-77
2023/09/24 06:33:34;;;;;;;10.15;6.70;;;;;;;10.64;100.00;102425.28;4910353;29;20055;-77
2023/09/24 06:36:05;;;;;;;10.70;7.15;;;;;;;10.67;100.00;102421.81;4918465;29;20039;-77
2023/09/24 06:38:35;;;;;;;9.15;6.38;;;;;;;10.69;100.00;102428.91;4911804;29;20051;-77
2023/09/24 06:41:05;;;;;;;9.60;6.63;;;;;;;10.72;100.00;102423.75;4907630;29;20055;-77
2023/09/24 06:43:33;;;;;;;12.02;7.32;;;;;;;10.75;100.00;102428.19;4900058;28;20057;-77
2023/09/24 06:46:05;;;;;;;13.40;7.15;;;;;;;10.80;100.00;102431.84;4928811;29;20051;-77
2023/09/24 06:48:33;;;;;;;7.57;6.72;;;;;;;10.87;100.00;102438.22;4919497;29;20071;-77
2023/09/24 06:51:08;;;;;;;10.10;6.95;;;;;;;11.08;100.00;102440.53;4899999;29;20059;-77
2023/09/24 06:53:38;;;;;;;10.40;5.80;;;;;;;11.54;100.00;102438.16;4908849;29;20062;-76
2023/09/24 06:56:07;;;;;;;6.13;5.13;;;;;;;12.05;100.00;102438.53;4930476;29;21672;-77
2023/09/24 06:58:35;;;;;;;7.15;5.20;;;;;;;12.47;100.00;102437.66;4947479;29;20066;-77
2023/09/24 07:01:03;;;;;;;5.85;4.60;;;;;;;12.74;100.00;102440.84;4903682;28;20059;-77
2023/09/24 07:03:31;;;;;;;8.13;4.90;;;;;;;12.89;100.00;102441.13;4947384;29;20059;-77
2023/09/24 07:05:59;;;;;;;9.40;4.80;;;;;;;12.97;100.00;102446.59;4950894;28;20043;-77
2023/09/24 07:08:27;;;;;;;7.55;4.90;;;;;;;13.10;100.00;102450.31;4928959;29;20063;-77
2023/09/24 07:11:19;;;;;;;9.25;4.28;;;;;;;13.22;100.00;102453.22;4931534;29;20066;-77
2023/09/24 07:13:47;;;;;;;5.13;4.32;;;;;;;13.21;100.00;102452.34;4948047;29;20039;-77
2023/09/24 07:16:20;;;;;;;4.63;4.23;;;;;;;13.20;100.00;102452.31;4863669;29;20047;-77
2023/09/24 07:18:50;;;;;;;5.78;4.30;;;;;;;13.26;100.00;102450.63;4948786;29;20047;-77
2023/09/24 07:21:19;;;;;;;9.10;4.70;;;;;;;13.44;100.00;102446.59;4916354;29;20065;-77
2023/09/24 07:24:02;;;;;;;4.68;4.18;;;;;;;13.57;100.00;102463.53;4931607;28;20047;-77
2023/09/24 07:26:30;;;;;;;7.93;3.97;;;;;;;13.68;100.00;102453.13;4944513;29;20557;-77
2023/09/24 07:28:57;;;;;;;5.78;4.40;;;;;;;13.78;100.00;102452.41;4930223;29;20055;-77
2023/09/24 07:31:25;;;;;;;5.93;3.92;;;;;;;13.99;100.00;102454.50;4836644;29;20486;-77
2023/09/24 07:33:59;;;;;;;7.63;3.95;;;;;;;14.27;100.00;102458.41;4922651;29;20055;-76
2023/09/24 07:36:28;;;;;;;5.63;4.00;;;;;;;14.61;100.00;102461.53;4918752;29;20043;-76
2023/09/24 07:39:05;;;;;;;7.85;3.97;;;;;;;14.96;100.00;102461.94;4945303;29;20502;-77
2023/09/24 07:41:33;;;;;;;5.00;3.75;;;;;;;15.28;100.00;102469.34;4932800;29;20502;-77
2023/09/24 07:44:00;;;;;;;4.95;3.72;;;;;;;15.53;100.00;102464.25;4945635;28;20047;-77
2023/09/24 07:46:28;;;;;;;4.95;3.03;;;;;;;15.74;100.00;102474.19;4897922;28;20051;-77
2023/09/24 07:48:55;;;;;;;8.63;3.80;;;;;;;15.93;100.00;102483.19;4946315;29;20051;-77
2023/09/24 07:51:23;;;;;;;6.93;3.80;;;;;;;16.10;100.00;102473.56;4932573;29;20051;-77
2023/09/24 07:53:51;;;;;;;6.07;3.90;;;;;;;16.19;100.00;102483.38;4927778;29;20078;-77
2023/09/24 07:56:19;;;;;;;6.30;3.35;;;;;;;16.28;100.00;102483.44;4913300;29;20055;-77
2023/09/24 07:58:46;;;;;;;6.75;3.58;;;;;;;16.32;100.00;102487.88;4941650;29;20054;-77
2023/09/24 08:01:14;;;;;;;7.45;3.67;;;;;;;16.41;100.00;102488.78;4921435;29;20047;-77
2023/09/24 08:03:44;;;;;;;6.10;3.80;;;;;;;16.53;100.00;102492.41;4884726;28;20502;-77
2023/09/24 08:06:12;;;;;;;8.05;3.45;;;;;;;16.62;100.00;102488.91;4951482;28;20051;-77
2023/09/24 08:08:40;;;;;;;7.82;3.40;;;;;;;16.65;100.00;102491.56;4916275;29;20055;-77
2023/09/24 08:11:19;;;;;;;5.50;3.60;;;;;;;16.72;100.00;102498.69;4925859;29;20055;-77
2023/09/24 08:13:47;;;;;;;5.00;3.22;;;;;;;16.91;100.00;102501.47;4933404;29;20051;-77
2023/09/24 08:16:19;;;;;;;7.45;4.00;;;;;;;17.07;100.00;102507.72;4942777;29;20050;-77
2023/09/24 08:18:49;;;;;;;7.65;3.40;;;;;;;17.21;100.00;102507.78;4887202;29;20051;-77
2023/09/24 08:21:19;;;;;;;5.10;3.67;;;;;;;17.27;100.00;102506.00;4937805;29;20126;-77
2023/09/24 08:23:47;;;;;;;4.85;3.83;;;;;;;17.34;100.00;102512.22;4932266;29;20039;-77
2023/09/24 08:26:15;;;;;;;7.72;3.67;;;;;;;17.43;100.00;102511.34;4892634;29;20074;-77
2023/09/24 08:28:43;;;;;;;5.80;3.50;;;;;;;17.51;100.00;102512.25;4958237;28;20054;-77
2023/09/24 08:31:11;;;;;;;7.65;2.97;;;;;;;17.53;100.00;102514.03;4906169;29;20758;-77
2023/09/24 08:33:40;;;;;;;8.10;3.47;;;;;;;17.64;100.00;102510.50;4885606;29;20058;-77
2023/09/24 08:36:09;;;;;;;5.20;3.30;;;;;;;17.65;100.00;102514.91;4926627;29;20070;-77
2023/09/24 08:38:37;;;;;;;4.97;3.13;;;;;;;17.68;100.00;102512.25;4927489;29;20047;-77
2023/09/24 08:41:14;;;;;;;7.25;3.63;;;;;;;17.77;100.00;102514.94;4925096;29;21098;-77
2023/09/24 08:43:42;;;;;;;5.28;2.78;;;;;;;17.84;100.00;102507.78;4945416;28;20058;-77
2023/09/24 08:46:11;;;;;;;6.22;3.03;;;;;;;17.79;100.00;102505.16;4942629;29;20049;-76
2023/09/24 08:48:39;;;;;;;6.72;2.75;;;;;;;17.74;100.00;102507.81;4927593;29;20055;-76
2023/09/24 08:51:12;;;;;;;5.15;2.80;;;;;;;17.78;100.00;102510.47;4922163;28;20055;-77
2023/09/24 08:53:39;;;;;;;6.43;2.60;;;;;;;17.77;100.00;102512.25;4916897;28;20063;-78
2023/09/24 08:56:08;;;;;;;6.78;3.05;;;;;;;17.79;100.00;102521.16;4905891;29;20051;-77
2023/09/24 08:58:39;;;;;;;7.30;3.28;;;;;;;17.71;100.00;102512.25;4907758;29;20048;-77
2023/09/24 09:01:10;;;;;;;7.97;3.25;;;;;;;17.60;100.00;102514.00;4922841;29;20056;-77
2023/09/24 09:03:39;;;;;;;5.03;2.78;;;;;;;17.51;100.00;102515.78;4913091;29;20059;-77
2023/09/24 09:06:29;;;;;;;4.47;2.35;;;;;;;17.43;100.00;102525.56;4865849;29;20052;-78
2023/09/24 09:08:57;;;;;;;7.63;3.38;;;;;;;17.28;100.00;102513.09;4914202;29;20048;-77
2023/09/24 09:11:46;;;;;;;6.57;2.50;;;;;;;17.18;100.00;102515.75;4911169;29;20059;-77
2023/09/24 09:14:14;;;;;;;5.22;2.58;;;;;;;17.13;100.00;102519.28;4938107;29;20782;-77
2023/09/24 09:16:57;;;;;;;6.30;2.55;;;;;;;17.01;100.00;102508.59;4917201;29;20047;-77
2023/09/24 09:19:28;;;;;;;4.05;2.42;;;;;;;16.95;100.00;102500.59;4909058;29;20061;-77
2023/09/24 09:21:55;;;;;;;3.80;2.55;;;;;;;16.85;100.00;102498.78;4893857;28;20056;-76
2023/09/24 09:24:24;;;;;;;3.55;2.17;;;;;;;16.80;100.00;102505.84;4884993;29;20443;-77
2023/09/24 09:26:56;;;;;;;4.25;2.38;;;;;;;16.76;100.00;102508.47;4926581;29;20044;-77
2023/09/24 09:29:25;;;;;;;6.88;2.10;;;;;;;16.72;100.00;102497.81;4908708;29;20062;-77
2023/09/24 09:31:54;;;;;;;5.88;2.72;;;;;;;16.69;100.00;102505.78;4899926;29;20047;-77
2023/09/24 09:34:23;;;;;;;5.05;2.47;;;;;;;16.59;100.00;102494.22;4903273;29;20055;-77
2023/09/24 09:36:50;;;;;;;6.18;2.47;;;;;;;16.56;100.00;102494.22;4880752;29;20048;-77
2023/09/24 09:39:17;;;;;;;3.67;2.55;;;;;;;16.55;100.00;102495.97;4888899;29;20099;-77
2023/09/24 09:41:49;;;;;;;6.35;2.45;;;;;;;16.52;100.00;102498.63;4888371;29;20056;-78
2023/09/24 09:44:25;;;;;;;4.38;2.35;;;;;;;16.54;100.00;102498.63;4918403;29;20063;-78
2023/09/24 09:46:59;;;;;;;2.38;1.90;;;;;;;16.59;100.00;102496.88;4936230;28;20051;-77
2023/09/24 09:49:32;;;;;;;3.47;1.90;;;;;;;16.62;100.00;102488.03;4915559;29;20056;-77
2023/09/24 09:52:02;;;;;;;4.03;2.20;;;;;;;16.65;100.00;102499.56;4883275;29;20066;-77
2023/09/24 09:54:34;;;;;;;4.07;1.92;;;;;;;16.66;100.00;102492.47;4916347;29;20077;-77
2023/09/24 09:57:03;;;;;;;3.50;1.95;;;;;;;16.68;100.00;102496.91;4933646;28;20052;-78
2023/09/24 09:59:33;;;;;;;3.95;2.08;;;;;;;16.67;100.00;102497.81;4947689;28;20051;-78
2023/09/24 10:02:02;;;;;;;7.13;2.47;;;;;;;16.70;100.00;102496.94;4897783;29;20072;-77
2023/09/24 10:04:30;;;;;;;5.38;2.13;;;;;;;16.70;100.00;102495.16;4909992;29;20070;-76
2023/09/24 10:06:59;;;;;;;5.43;1.77;;;;;;;16.73;100.00;102492.50;4923058;28;20414;-77
2023/09/24 10:09:26;;;;;;;6.63;1.95;;;;;;;16.76;100.00;102494.28;4879284;29;20056;-76
2023/09/24 10:11:56;;;;;;;4.22;1.40;;;;;;;16.80;100.00;102492.53;4941783;28;20529;-77
2023/09/24 10:14:55;;;;;;;6.67;2.00;;;;;;;16.88;100.00;102490.78;4912396;29;20055;-76
2023/09/24 10:17:23;;;;;;;4.88;2.33;;;;;;;16.90;100.00;102505.91;4938426;29;20051;-77
2023/09/24 10:20:08;;;;;;;4.78;1.90;;;;;;;16.92;100.00;102496.16;4934596;28;20059;-76
2023/09/24 10:22:40;;;;;;;4.43;2.42;;;;;;;16.97;100.00;102503.25;4910488;29;20071;-76
2023/09/24 10:25:34;;;;;;;4.57;1.67;;;;;;;17.03;100.00;102500.59;4899193;28;20827;-76
2023/09/24 10:28:06;;;;;;;3.38;1.88;;;;;;;17.10;100.00;102497.09;4932890;29;20059;-77
2023/09/24 10:31:05;;;;;;;3.80;1.52;;;;;;;17.20;100.00;102497.97;4926889;29;20529;-77
2023/09/24 10:33:57;;;;;;;2.80;1.45;;;;;;;17.19;100.00;102497.09;4923216;28;20054;-77
2023/09/24 10:36:33;;;;;;;6.65;1.85;;;;;;;17.22;100.00;102499.78;4921817;29;20046;-77
2023/09/24 10:39:05;;;;;;;4.38;1.92;;;;;;;17.26;100.00;102487.38;4888984;28;20051;-78
2023/09/24 10:41:36;;;;;;;6.60;1.48;;;;;;;17.33;100.00;102494.44;4927174;29;20055;-78
2023/09/24 10:44:23;;;;;;;5.32;1.73;;;;;;;17.39;100.00;102497.16;4917693;29;20046;-77
2023/09/24 10:46:51;;;;;;;5.80;1.80;;;;;;;17.44;100.00;102492.69;4911131;29;20613;-77
2023/09/24 10:49:26;;;;;;;5.05;1.85;;;;;;;17.47;100.00;102487.38;4927549;28;20094;-77
2023/09/24 10:52:00;;;;;;;3.10;1.85;;;;;;;17.50;100.00;102484.72;4921482;29;20746;-76
2023/09/24 10:54:27;;;;;;;8.65;1.65;;;;;;;17.56;100.00;102481.16;4873825;29;20059;-76
2023/09/24 10:56:54;;;;;;;4.13;1.65;;;;;;;17.62;100.00;102482.94;4917672;28;20490;-76
2023/09/24 10:59:33;;;;;;;8.82;1.67;;;;;;;17.69;100.00;102485.59;4943595;28;20058;-76
2023/09/24 11:02:21;;;;;;;4.35;1.50;;;;;;;17.75;100.00;102476.72;4955138;28;20043;-76
2023/09/24 11:04:49;;;;;;;8.77;1.77;;;;;;;17.78;100.00;102479.34;4929438;28;20411;-76
2023/09/24 11:07:16;;;;;;;4.10;1.60;;;;;;;17.81;100.00;102484.69;4932603;28;21690;-77
2023/09/24 11:09:50;;;;;;;3.45;1.75;;;;;;;17.80;100.00;102482.91;4891576;28;20047;-77
2023/09/24 11:12:18;;;;;;;4.13;1.85;;;;;;;17.81;100.00;102481.16;4922296;28;20588;-76
2023/09/24 11:14:57;;;;;;;3.75;1.25;;;;;;;17.80;100.00;102482.03;4892274;28;20057;-76
2023/09/24 11:17:41;;;;;;;2.47;1.30;;;;;;;17.84;100.00;102482.03;4957084;28;20050;-76
2023/09/24 11:20:09;;;;;;;3.58;1.65;;;;;;;17.89;100.00;102472.28;4954766;28;20051;-76
2023/09/24 11:22:36;;;;;;;2.75;1.70;;;;;;;17.92;100.00;102477.63;4944256;28;20058;-76
2023/09/24 11:25:09;;;;;;;1.48;1.20;;;;;;;17.98;100.00;102483.84;4875206;29;20532;-76
2023/09/24 11:27:47;;;;;;;3.53;1.60;;;;;;;18.01;100.00;102470.47;4936073;28;20055;-76